sensor_id;sensor_type;location;lat;lon;timestamp;pressure;altitude;pressure_sealevel;temperature;humidity
58967;BME280;44744;51.894;5.080;2022-09-28T00:00:26;99686.50;;;8.79;79.83
58967;BME280;44744;51.894;5.080;2022-09-28T00:01:26;99686.31;;;8.79;79.72
58967;BME280;44744;51.894;5.080;2022-09-28T00:02:26;99685.82;;;8.78;79.80
58967;BME280;44744;51.894;5.080;2022-09-28T00:03:27;99684.33;;;8.79;79.81
58967;BME280;44744;51.894;5.080;2022-09-28T00:04:27;99685.20;;;8.80;79.63
58967;BME280;44744;51.894;5.080;2022-09-28T00:05:27;99686.64;;;8.79;79.69
58967;BME280;44744;51.894;5.080;2022-09-28T00:06:29;99685.63;;;8.79;79.82
58967;BME280;44744;51.894;5.080;2022-09-28T00:08:47;99687.27;;;8.75;79.70
58967;BME280;44744;51.894;5.080;2022-09-28T00:09:48;99685.09;;;8.73;79.79
58967;BME280;44744;51.894;5.080;2022-09-28T00:10:54;99684.39;;;8.73;79.64
58967;BME280;44744;51.894;5.080;2022-09-28T00:11:54;99685.50;;;8.72;79.67
58967;BME280;44744;51.894;5.080;2022-09-28T00:12:54;99684.09;;;8.72;79.69
58967;BME280;44744;51.894;5.080;2022-09-28T00:13:57;99682.81;;;8.73;79.71
58967;BME280;44744;51.894;5.080;2022-09-28T00:14:58;99684.79;;;8.73;79.71
58967;BME280;44744;51.894;5.080;2022-09-28T00:16:00;99683.77;;;8.72;79.70
58967;BME280;44744;51.894;5.080;2022-09-28T00:17:03;99681.78;;;8.73;79.63
58967;BME280;44744;51.894;5.080;2022-09-28T00:18:06;99684.55;;;8.73;79.83
58967;BME280;44744;51.894;5.080;2022-09-28T00:19:07;99684.15;;;8.74;79.73
58967;BME280;44744;51.894;5.080;2022-09-28T00:20:11;99681.24;;;8.75;79.76
58967;BME280;44744;51.894;5.080;2022-09-28T00:21:29;99681.92;;;8.76;79.72
58967;BME280;44744;51.894;5.080;2022-09-28T00:22:30;99681.20;;;8.76;79.81
58967;BME280;44744;51.894;5.080;2022-09-28T00:23:31;99681.17;;;8.76;79.81
58967;BME280;44744;51.894;5.080;2022-09-28T00:24:32;99683.92;;;8.78;79.69
58967;BME280;44744;51.894;5.080;2022-09-28T00:25:32;99683.91;;;8.78;79.63
58967;BME280;44744;51.894;5.080;2022-09-28T00:26:33;99684.77;;;8.78;79.72
58967;BME280;44744;51.894;5.080;2022-09-28T00:27:36;99684.89;;;8.79;79.68
58967;BME280;44744;51.894;5.080;2022-09-28T00:28:42;99684.86;;;8.79;79.78
58967;BME280;44744;51.894;5.080;2022-09-28T00:29:42;99683.75;;;8.80;79.78
58967;BME280;44744;51.894;5.080;2022-09-28T00:30:42;99684.57;;;8.81;79.72
58967;BME280;44744;51.894;5.080;2022-09-28T00:31:43;99682.77;;;8.82;79.75
58967;BME280;44744;51.894;5.080;2022-09-28T00:32:43;99682.40;;;8.82;79.74
58967;BME280;44744;51.894;5.080;2022-09-28T00:33:44;99684.27;;;8.83;79.69
58967;BME280;44744;51.894;5.080;2022-09-28T00:34:44;99680.70;;;8.84;79.71
58967;BME280;44744;51.894;5.080;2022-09-28T00:35:45;99681.67;;;8.85;79.70
58967;BME280;44744;51.894;5.080;2022-09-28T00:36:46;99681.29;;;8.85;79.79
58967;BME280;44744;51.894;5.080;2022-09-28T00:37:47;99681.47;;;8.85;79.67
58967;BME280;44744;51.894;5.080;2022-09-28T00:38:48;99681.88;;;8.84;79.64
58967;BME280;44744;51.894;5.080;2022-09-28T00:39:56;99680.18;;;8.83;79.61
58967;BME280;44744;51.894;5.080;2022-09-28T00:40:56;99679.80;;;8.84;79.68
58967;BME280;44744;51.894;5.080;2022-09-28T00:41:57;99681.13;;;8.85;79.67
58967;BME280;44744;51.894;5.080;2022-09-28T00:42:57;99681.19;;;8.84;79.72
58967;BME280;44744;51.894;5.080;2022-09-28T00:45:28;99685.91;;;8.82;79.61
58967;BME280;44744;51.894;5.080;2022-09-28T00:46:32;99681.77;;;8.81;79.62
58967;BME280;44744;51.894;5.080;2022-09-28T00:47:53;99683.02;;;8.81;79.60
58967;BME280;44744;51.894;5.080;2022-09-28T00:48:57;99682.98;;;8.79;79.48
58967;BME280;44744;51.894;5.080;2022-09-28T00:51:11;99681.75;;;8.76;79.55
58967;BME280;44744;51.894;5.080;2022-09-28T00:52:15;99679.73;;;8.75;79.58
58967;BME280;44744;51.894;5.080;2022-09-28T00:53:22;99676.64;;;8.73;79.57
58967;BME280;44744;51.894;5.080;2022-09-28T00:54:23;99675.23;;;8.73;79.57
58967;BME280;44744;51.894;5.080;2022-09-28T00:55:33;99677.98;;;8.74;79.50
58967;BME280;44744;51.894;5.080;2022-09-28T00:56:37;99671.48;;;8.74;79.63
58967;BME280;44744;51.894;5.080;2022-09-28T00:57:43;99670.12;;;8.73;79.58
58967;BME280;44744;51.894;5.080;2022-09-28T00:58:48;99674.45;;;8.74;79.57
58967;BME280;44744;51.894;5.080;2022-09-28T00:59:50;99672.38;;;8.74;79.60
58967;BME280;44744;51.894;5.080;2022-09-28T01:00:52;99670.59;;;8.74;79.56
58967;BME280;44744;51.894;5.080;2022-09-28T01:01:54;99674.46;;;8.74;79.56
58967;BME280;44744;51.894;5.080;2022-09-28T01:02:55;99672.20;;;8.74;79.43
58967;BME280;44744;51.894;5.080;2022-09-28T01:03:58;99675.54;;;8.74;79.58
58967;BME280;44744;51.894;5.080;2022-09-28T01:05:00;99673.63;;;8.74;79.41
58967;BME280;44744;51.894;5.080;2022-09-28T01:06:03;99674.66;;;8.74;79.39
58967;BME280;44744;51.894;5.080;2022-09-28T01:07:07;99675.43;;;8.73;79.51
58967;BME280;44744;51.894;5.080;2022-09-28T01:08:09;99673.41;;;8.74;79.50
58967;BME280;44744;51.894;5.080;2022-09-28T01:09:11;99672.04;;;8.74;79.41
58967;BME280;44744;51.894;5.080;2022-09-28T01:10:13;99669.76;;;8.73;79.55
58967;BME280;44744;51.894;5.080;2022-09-28T01:11:13;99668.02;;;8.73;79.37
58967;BME280;44744;51.894;5.080;2022-09-28T01:12:14;99667.00;;;8.72;79.43
58967;BME280;44744;51.894;5.080;2022-09-28T01:13:15;99667.52;;;8.73;79.47
58967;BME280;44744;51.894;5.080;2022-09-28T01:14:17;99670.11;;;8.73;79.45
58967;BME280;44744;51.894;5.080;2022-09-28T01:15:18;99671.00;;;8.73;79.45
58967;BME280;44744;51.894;5.080;2022-09-28T01:16:50;99673.80;;;8.74;79.46
58967;BME280;44744;51.894;5.080;2022-09-28T01:18:24;99668.98;;;8.72;79.49
58967;BME280;44744;51.894;5.080;2022-09-28T01:20:59;99671.86;;;8.70;79.44
58967;BME280;44744;51.894;5.080;2022-09-28T01:22:30;99675.28;;;8.69;79.42
58967;BME280;44744;51.894;5.080;2022-09-28T01:23:42;99672.08;;;8.67;79.42
58967;BME280;44744;51.894;5.080;2022-09-28T01:24:48;99677.15;;;8.63;79.33
58967;BME280;44744;51.894;5.080;2022-09-28T01:27:38;99671.23;;;8.56;79.46
58967;BME280;44744;51.894;5.080;2022-09-28T01:28:42;99670.55;;;8.56;79.48
58967;BME280;44744;51.894;5.080;2022-09-28T01:29:54;99667.25;;;8.55;79.56
58967;BME280;44744;51.894;5.080;2022-09-28T01:32:13;99674.30;;;8.52;79.52
58967;BME280;44744;51.894;5.080;2022-09-28T01:33:21;99676.80;;;8.51;79.49
58967;BME280;44744;51.894;5.080;2022-09-28T01:34:34;99675.59;;;8.51;79.48
58967;BME280;44744;51.894;5.080;2022-09-28T01:35:46;99675.41;;;8.49;79.44
58967;BME280;44744;51.894;5.080;2022-09-28T01:36:52;99673.55;;;8.47;79.44
58967;BME280;44744;51.894;5.080;2022-09-28T01:38:11;99678.80;;;8.45;79.47
58967;BME280;44744;51.894;5.080;2022-09-28T01:39:17;99678.59;;;8.43;79.45
58967;BME280;44744;51.894;5.080;2022-09-28T01:40:21;99674.46;;;8.41;79.54
58967;BME280;44744;51.894;5.080;2022-09-28T01:41:24;99671.69;;;8.40;79.57
58967;BME280;44744;51.894;5.080;2022-09-28T01:42:30;99672.42;;;8.40;79.64
58967;BME280;44744;51.894;5.080;2022-09-28T01:43:36;99671.88;;;8.40;79.67
58967;BME280;44744;51.894;5.080;2022-09-28T01:44:41;99676.06;;;8.41;79.77
58967;BME280;44744;51.894;5.080;2022-09-28T01:45:48;99676.94;;;8.41;79.71
58967;BME280;44744;51.894;5.080;2022-09-28T01:46:51;99679.48;;;8.42;79.81
58967;BME280;44744;51.894;5.080;2022-09-28T01:47:55;99675.15;;;8.41;79.81
58967;BME280;44744;51.894;5.080;2022-09-28T01:49:03;99677.80;;;8.41;79.70
58967;BME280;44744;51.894;5.080;2022-09-28T01:50:10;99676.19;;;8.41;79.90
58967;BME280;44744;51.894;5.080;2022-09-28T01:51:32;99680.44;;;8.41;79.89
58967;BME280;44744;51.894;5.080;2022-09-28T01:52:36;99681.66;;;8.38;79.85
58967;BME280;44744;51.894;5.080;2022-09-28T01:53:43;99682.52;;;8.33;80.08
58967;BME280;44744;51.894;5.080;2022-09-28T01:54:55;99680.19;;;8.31;80.05
58967;BME280;44744;51.894;5.080;2022-09-28T01:55:58;99678.59;;;8.29;80.14
58967;BME280;44744;51.894;5.080;2022-09-28T01:58:27;99676.31;;;8.23;80.25
58967;BME280;44744;51.894;5.080;2022-09-28T01:59:32;99677.37;;;8.23;80.29
58967;BME280;44744;51.894;5.080;2022-09-28T02:00:37;99673.84;;;8.23;80.45
58967;BME280;44744;51.894;5.080;2022-09-28T02:01:45;99675.02;;;8.21;80.25
58967;BME280;44744;51.894;5.080;2022-09-28T02:04:58;99670.70;;;8.17;80.51
58967;BME280;44744;51.894;5.080;2022-09-28T02:06:08;99671.86;;;8.18;80.51
58967;BME280;44744;51.894;5.080;2022-09-28T02:07:15;99669.61;;;8.20;80.45
58967;BME280;44744;51.894;5.080;2022-09-28T02:08:25;99668.94;;;8.19;80.38
58967;BME280;44744;51.894;5.080;2022-09-28T02:09:54;99667.52;;;8.19;80.51
58967;BME280;44744;51.894;5.080;2022-09-28T02:10:59;99671.45;;;8.19;80.59
58967;BME280;44744;51.894;5.080;2022-09-28T02:12:09;99667.58;;;8.19;80.59
58967;BME280;44744;51.894;5.080;2022-09-28T02:13:18;99669.90;;;8.18;80.56
58967;BME280;44744;51.894;5.080;2022-09-28T02:14:21;99665.81;;;8.19;80.69
58967;BME280;44744;51.894;5.080;2022-09-28T02:15:27;99668.14;;;8.18;80.69
58967;BME280;44744;51.894;5.080;2022-09-28T02:16:50;99664.77;;;8.18;80.87
58967;BME280;44744;51.894;5.080;2022-09-28T02:17:52;99666.30;;;8.17;80.89
58967;BME280;44744;51.894;5.080;2022-09-28T02:18:53;99666.16;;;8.16;80.84
58967;BME280;44744;51.894;5.080;2022-09-28T02:19:54;99665.27;;;8.16;81.03
58967;BME280;44744;51.894;5.080;2022-09-28T02:21:37;99664.04;;;8.16;81.13
58967;BME280;44744;51.894;5.080;2022-09-28T02:22:46;99665.30;;;8.13;81.03
58967;BME280;44744;51.894;5.080;2022-09-28T02:23:55;99662.73;;;8.12;81.10
58967;BME280;44744;51.894;5.080;2022-09-28T02:25:07;99663.26;;;8.12;81.09
58967;BME280;44744;51.894;5.080;2022-09-28T02:26:11;99661.23;;;8.13;81.27
58967;BME280;44744;51.894;5.080;2022-09-28T02:27:18;99663.27;;;8.12;81.44
58967;BME280;44744;51.894;5.080;2022-09-28T02:28:24;99663.46;;;8.12;81.40
58967;BME280;44744;51.894;5.080;2022-09-28T02:29:25;99665.31;;;8.10;81.36
58967;BME280;44744;51.894;5.080;2022-09-28T02:30:28;99663.52;;;8.11;81.52
58967;BME280;44744;51.894;5.080;2022-09-28T02:31:29;99661.89;;;8.12;81.64
58967;BME280;44744;51.894;5.080;2022-09-28T02:32:32;99660.16;;;8.11;81.69
58967;BME280;44744;51.894;5.080;2022-09-28T02:33:39;99658.24;;;8.11;81.66
58967;BME280;44744;51.894;5.080;2022-09-28T02:34:40;99655.81;;;8.10;81.77
58967;BME280;44744;51.894;5.080;2022-09-28T02:35:43;99653.21;;;8.10;81.72
58967;BME280;44744;51.894;5.080;2022-09-28T02:36:45;99652.98;;;8.10;81.75
58967;BME280;44744;51.894;5.080;2022-09-28T02:37:46;99656.26;;;8.11;81.73
58967;BME280;44744;51.894;5.080;2022-09-28T02:38:47;99657.23;;;8.10;81.79
58967;BME280;44744;51.894;5.080;2022-09-28T02:39:47;99659.70;;;8.10;81.88
58967;BME280;44744;51.894;5.080;2022-09-28T02:42:23;99658.54;;;8.11;81.88
58967;BME280;44744;51.894;5.080;2022-09-28T02:43:33;99658.54;;;8.11;82.06
58967;BME280;44744;51.894;5.080;2022-09-28T02:46:49;99657.52;;;8.08;81.99
58967;BME280;44744;51.894;5.080;2022-09-28T02:49:36;99660.65;;;8.09;82.26
58967;BME280;44744;51.894;5.080;2022-09-28T02:51:48;99663.34;;;8.08;82.19
58967;BME280;44744;51.894;5.080;2022-09-28T03:01:05;99664.55;;;8.03;82.48
58967;BME280;44744;51.894;5.080;2022-09-28T03:03:30;99674.03;;;8.03;82.72
58967;BME280;44744;51.894;5.080;2022-09-28T03:04:41;99671.27;;;8.02;82.65
58967;BME280;44744;51.894;5.080;2022-09-28T03:06:08;99672.42;;;8.03;82.72
58967;BME280;44744;51.894;5.080;2022-09-28T03:08:26;99672.67;;;8.02;82.79
58967;BME280;44744;51.894;5.080;2022-09-28T03:09:34;99668.23;;;8.03;82.73
58967;BME280;44744;51.894;5.080;2022-09-28T03:10:42;99668.05;;;8.03;82.90
58967;BME280;44744;51.894;5.080;2022-09-28T03:11:52;99666.84;;;8.03;82.91
58967;BME280;44744;51.894;5.080;2022-09-28T03:12:55;99667.70;;;8.03;82.80
58967;BME280;44744;51.894;5.080;2022-09-28T03:13:56;99666.52;;;8.02;82.80
58967;BME280;44744;51.894;5.080;2022-09-28T03:16:11;99671.20;;;8.03;82.91
58967;BME280;44744;51.894;5.080;2022-09-28T03:17:12;99673.27;;;8.04;82.99
58967;BME280;44744;51.894;5.080;2022-09-28T03:18:12;99673.70;;;8.03;83.03
58967;BME280;44744;51.894;5.080;2022-09-28T03:19:13;99676.34;;;8.03;83.09
58967;BME280;44744;51.894;5.080;2022-09-28T03:20:15;99676.83;;;8.03;83.10
58967;BME280;44744;51.894;5.080;2022-09-28T03:21:16;99675.27;;;8.03;83.12
58967;BME280;44744;51.894;5.080;2022-09-28T03:22:16;99674.88;;;8.04;83.19
58967;BME280;44744;51.894;5.080;2022-09-28T03:23:16;99679.23;;;8.04;83.14
58967;BME280;44744;51.894;5.080;2022-09-28T03:24:17;99682.77;;;8.04;83.20
58967;BME280;44744;51.894;5.080;2022-09-28T03:25:17;99682.05;;;8.05;83.27
58967;BME280;44744;51.894;5.080;2022-09-28T03:26:17;99682.77;;;8.04;83.15
58967;BME280;44744;51.894;5.080;2022-09-28T03:27:18;99684.80;;;8.06;83.24
58967;BME280;44744;51.894;5.080;2022-09-28T03:28:18;99688.54;;;8.05;83.17
58967;BME280;44744;51.894;5.080;2022-09-28T03:29:18;99684.99;;;8.05;83.29
58967;BME280;44744;51.894;5.080;2022-09-28T03:30:19;99689.02;;;8.06;83.28
58967;BME280;44744;51.894;5.080;2022-09-28T03:31:19;99688.52;;;8.06;83.13
58967;BME280;44744;51.894;5.080;2022-09-28T03:32:19;99687.88;;;8.07;83.27
58967;BME280;44744;51.894;5.080;2022-09-28T03:33:22;99687.18;;;8.07;83.21
58967;BME280;44744;51.894;5.080;2022-09-28T03:34:23;99685.02;;;8.08;83.26
58967;BME280;44744;51.894;5.080;2022-09-28T03:35:23;99689.41;;;8.08;83.24
58967;BME280;44744;51.894;5.080;2022-09-28T03:36:23;99684.23;;;8.09;83.33
58967;BME280;44744;51.894;5.080;2022-09-28T03:37:25;99683.94;;;8.08;83.25
58967;BME280;44744;51.894;5.080;2022-09-28T03:38:25;99685.68;;;8.08;83.29
58967;BME280;44744;51.894;5.080;2022-09-28T03:39:26;99682.53;;;8.08;83.19
58967;BME280;44744;51.894;5.080;2022-09-28T03:40:26;99680.56;;;8.08;83.26
58967;BME280;44744;51.894;5.080;2022-09-28T03:41:27;99679.69;;;8.08;83.23
58967;BME280;44744;51.894;5.080;2022-09-28T03:42:27;99680.45;;;8.10;83.19
58967;BME280;44744;51.894;5.080;2022-09-28T03:43:29;99682.81;;;8.12;83.10
58967;BME280;44744;51.894;5.080;2022-09-28T03:44:29;99682.20;;;8.13;83.26
58967;BME280;44744;51.894;5.080;2022-09-28T03:45:29;99679.96;;;8.13;83.24
58967;BME280;44744;51.894;5.080;2022-09-28T03:46:30;99678.34;;;8.13;83.19
58967;BME280;44744;51.894;5.080;2022-09-28T03:47:30;99677.75;;;8.14;83.17
58967;BME280;44744;51.894;5.080;2022-09-28T03:48:34;99674.77;;;8.14;83.10
58967;BME280;44744;51.894;5.080;2022-09-28T03:49:35;99676.90;;;8.14;83.03
58967;BME280;44744;51.894;5.080;2022-09-28T03:50:35;99676.48;;;8.15;83.03
58967;BME280;44744;51.894;5.080;2022-09-28T03:51:35;99676.98;;;8.15;83.12
58967;BME280;44744;51.894;5.080;2022-09-28T03:52:36;99672.23;;;8.15;82.96
58967;BME280;44744;51.894;5.080;2022-09-28T03:53:36;99674.55;;;8.15;83.13
58967;BME280;44744;51.894;5.080;2022-09-28T03:54:37;99677.94;;;8.14;82.92
58967;BME280;44744;51.894;5.080;2022-09-28T03:55:37;99675.79;;;8.14;82.94
58967;BME280;44744;51.894;5.080;2022-09-28T03:56:41;99677.42;;;8.14;82.96
58967;BME280;44744;51.894;5.080;2022-09-28T03:57:43;99674.62;;;8.13;82.93
58967;BME280;44744;51.894;5.080;2022-09-28T03:58:43;99674.68;;;8.13;82.84
58967;BME280;44744;51.894;5.080;2022-09-28T03:59:43;99671.19;;;8.09;82.83
58967;BME280;44744;51.894;5.080;2022-09-28T04:00:44;99670.41;;;8.08;82.82
58967;BME280;44744;51.894;5.080;2022-09-28T04:01:44;99669.19;;;8.07;82.79
58967;BME280;44744;51.894;5.080;2022-09-28T04:02:44;99668.64;;;8.08;82.79
58967;BME280;44744;51.894;5.080;2022-09-28T04:03:45;99668.69;;;8.07;82.80
58967;BME280;44744;51.894;5.080;2022-09-28T04:04:48;99666.63;;;8.06;82.81
58967;BME280;44744;51.894;5.080;2022-09-28T04:05:50;99668.32;;;8.07;82.73
58967;BME280;44744;51.894;5.080;2022-09-28T04:06:50;99666.98;;;8.06;82.79
58967;BME280;44744;51.894;5.080;2022-09-28T04:07:53;99670.46;;;8.07;82.79
58967;BME280;44744;51.894;5.080;2022-09-28T04:08:53;99670.38;;;8.05;82.80
58967;BME280;44744;51.894;5.080;2022-09-28T04:09:53;99670.80;;;8.07;82.83
58967;BME280;44744;51.894;5.080;2022-09-28T04:10:57;99674.20;;;8.06;82.79
58967;BME280;44744;51.894;5.080;2022-09-28T04:11:57;99678.19;;;8.07;82.79
58967;BME280;44744;51.894;5.080;2022-09-28T04:12:57;99675.09;;;8.06;82.82
58967;BME280;44744;51.894;5.080;2022-09-28T04:13:58;99678.95;;;8.06;82.82
58967;BME280;44744;51.894;5.080;2022-09-28T04:14:58;99675.92;;;8.07;82.79
58967;BME280;44744;51.894;5.080;2022-09-28T04:15:59;99672.66;;;8.05;82.84
58967;BME280;44744;51.894;5.080;2022-09-28T04:17:00;99670.92;;;8.05;82.79
58967;BME280;44744;51.894;5.080;2022-09-28T04:18:00;99673.70;;;8.06;82.89
58967;BME280;44744;51.894;5.080;2022-09-28T04:19:06;99676.69;;;8.06;82.97
58967;BME280;44744;51.894;5.080;2022-09-28T04:20:07;99673.91;;;8.05;82.84
58967;BME280;44744;51.894;5.080;2022-09-28T04:21:13;99676.20;;;8.05;82.99
58967;BME280;44744;51.894;5.080;2022-09-28T04:22:14;99679.54;;;8.05;82.97
58967;BME280;44744;51.894;5.080;2022-09-28T04:23:14;99676.01;;;8.05;82.93
58967;BME280;44744;51.894;5.080;2022-09-28T04:24:16;99680.21;;;8.06;82.97
58967;BME280;44744;51.894;5.080;2022-09-28T04:25:16;99678.83;;;8.05;82.93
58967;BME280;44744;51.894;5.080;2022-09-28T04:26:19;99683.52;;;8.06;82.98
58967;BME280;44744;51.894;5.080;2022-09-28T04:27:23;99683.27;;;8.07;82.94
58967;BME280;44744;51.894;5.080;2022-09-28T04:28:24;99682.73;;;8.08;83.07
58967;BME280;44744;51.894;5.080;2022-09-28T04:29:27;99681.17;;;8.07;83.10
58967;BME280;44744;51.894;5.080;2022-09-28T04:30:27;99681.86;;;8.07;83.15
58967;BME280;44744;51.894;5.080;2022-09-28T04:31:28;99681.69;;;8.07;83.09
58967;BME280;44744;51.894;5.080;2022-09-28T04:32:28;99684.48;;;8.08;83.14
58967;BME280;44744;51.894;5.080;2022-09-28T04:33:30;99684.50;;;8.07;83.25
58967;BME280;44744;51.894;5.080;2022-09-28T04:34:30;99687.51;;;8.07;83.11
58967;BME280;44744;51.894;5.080;2022-09-28T04:35:31;99684.85;;;8.08;83.13
58967;BME280;44744;51.894;5.080;2022-09-28T04:36:31;99685.02;;;8.08;83.10
58967;BME280;44744;51.894;5.080;2022-09-28T04:37:31;99686.53;;;8.09;83.17
58967;BME280;44744;51.894;5.080;2022-09-28T04:38:32;99689.69;;;8.09;83.05
58967;BME280;44744;51.894;5.080;2022-09-28T04:39:33;99689.83;;;8.10;83.12
58967;BME280;44744;51.894;5.080;2022-09-28T04:40:40;99690.19;;;8.09;83.14
58967;BME280;44744;51.894;5.080;2022-09-28T04:41:41;99691.81;;;8.09;83.02
58967;BME280;44744;51.894;5.080;2022-09-28T04:42:52;99694.11;;;8.09;82.98
58967;BME280;44744;51.894;5.080;2022-09-28T04:44:53;99695.71;;;8.08;82.96
58967;BME280;44744;51.894;5.080;2022-09-28T04:47:29;99701.77;;;8.05;82.96
58967;BME280;44744;51.894;5.080;2022-09-28T04:48:29;99699.33;;;8.04;83.03
58967;BME280;44744;51.894;5.080;2022-09-28T04:49:30;99704.94;;;8.05;82.90
58967;BME280;44744;51.894;5.080;2022-09-28T04:50:30;99701.05;;;8.05;82.91
58967;BME280;44744;51.894;5.080;2022-09-28T04:51:31;99705.46;;;8.05;82.85
58967;BME280;44744;51.894;5.080;2022-09-28T04:52:31;99702.98;;;8.05;82.84
58967;BME280;44744;51.894;5.080;2022-09-28T04:53:34;99704.61;;;8.04;82.76
58967;BME280;44744;51.894;5.080;2022-09-28T04:54:35;99702.66;;;8.04;82.85
58967;BME280;44744;51.894;5.080;2022-09-28T04:55:35;99702.64;;;8.05;82.71
58967;BME280;44744;51.894;5.080;2022-09-28T04:56:35;99699.70;;;8.04;82.76
58967;BME280;44744;51.894;5.080;2022-09-28T04:57:36;99702.69;;;8.04;82.64
58967;BME280;44744;51.894;5.080;2022-09-28T04:58:37;99700.38;;;8.04;82.74
58967;BME280;44744;51.894;5.080;2022-09-28T04:59:37;99698.71;;;8.06;82.82
58967;BME280;44744;51.894;5.080;2022-09-28T05:00:41;99699.88;;;8.07;82.75
58967;BME280;44744;51.894;5.080;2022-09-28T05:01:41;99693.11;;;8.08;82.68
58967;BME280;44744;51.894;5.080;2022-09-28T05:02:41;99695.90;;;8.08;82.74
58967;BME280;44744;51.894;5.080;2022-09-28T05:03:44;99694.04;;;8.10;82.70
58967;BME280;44744;51.894;5.080;2022-09-28T05:04:53;99694.84;;;8.11;82.66
58967;BME280;44744;51.894;5.080;2022-09-28T05:05:57;99692.14;;;8.12;82.59
58967;BME280;44744;51.894;5.080;2022-09-28T05:06:58;99692.29;;;8.12;82.58
58967;BME280;44744;51.894;5.080;2022-09-28T05:08:00;99690.56;;;8.12;82.62
58967;BME280;44744;51.894;5.080;2022-09-28T05:09:04;99690.52;;;8.12;82.57
58967;BME280;44744;51.894;5.080;2022-09-28T05:10:05;99691.15;;;8.14;82.56
58967;BME280;44744;51.894;5.080;2022-09-28T05:11:07;99693.70;;;8.15;82.47
58967;BME280;44744;51.894;5.080;2022-09-28T05:12:09;99691.07;;;8.15;82.38
58967;BME280;44744;51.894;5.080;2022-09-28T05:13:11;99690.21;;;8.15;82.33
58967;BME280;44744;51.894;5.080;2022-09-28T05:14:11;99688.63;;;8.15;82.30
58967;BME280;44744;51.894;5.080;2022-09-28T05:15:12;99688.12;;;8.14;82.42
58967;BME280;44744;51.894;5.080;2022-09-28T05:16:13;99689.75;;;8.14;82.28
58967;BME280;44744;51.894;5.080;2022-09-28T05:17:14;99691.35;;;8.13;82.18
58967;BME280;44744;51.894;5.080;2022-09-28T05:18:14;99691.41;;;8.12;82.08
58967;BME280;44744;51.894;5.080;2022-09-28T05:19:14;99693.57;;;8.12;82.08
58967;BME280;44744;51.894;5.080;2022-09-28T05:20:15;99690.46;;;8.11;82.16
58967;BME280;44744;51.894;5.080;2022-09-28T05:21:15;99695.39;;;8.11;82.18
58967;BME280;44744;51.894;5.080;2022-09-28T05:22:15;99695.30;;;8.09;82.14
58967;BME280;44744;51.894;5.080;2022-09-28T05:23:16;99688.98;;;8.09;82.09
58967;BME280;44744;51.894;5.080;2022-09-28T05:24:16;99694.05;;;8.10;82.08
58967;BME280;44744;51.894;5.080;2022-09-28T05:25:17;99699.66;;;8.10;82.06
58967;BME280;44744;51.894;5.080;2022-09-28T05:26:18;99700.52;;;8.10;82.12
58967;BME280;44744;51.894;5.080;2022-09-28T05:27:18;99698.77;;;8.10;82.06
58967;BME280;44744;51.894;5.080;2022-09-28T05:28:23;99704.41;;;8.10;82.10
58967;BME280;44744;51.894;5.080;2022-09-28T05:29:28;99708.09;;;8.10;82.14
58967;BME280;44744;51.894;5.080;2022-09-28T05:30:29;99708.79;;;8.10;82.08
58967;BME280;44744;51.894;5.080;2022-09-28T05:31:29;99708.11;;;8.10;82.03
58967;BME280;44744;51.894;5.080;2022-09-28T05:32:29;99711.28;;;8.10;81.92
58967;BME280;44744;51.894;5.080;2022-09-28T05:33:31;99711.13;;;8.10;82.09
58967;BME280;44744;51.894;5.080;2022-09-28T05:34:31;99712.64;;;8.08;81.98
58967;BME280;44744;51.894;5.080;2022-09-28T05:35:32;99711.53;;;8.06;81.93
58967;BME280;44744;51.894;5.080;2022-09-28T05:36:32;99712.45;;;8.06;82.09
58967;BME280;44744;51.894;5.080;2022-09-28T05:37:33;99711.48;;;8.04;82.04
58967;BME280;44744;51.894;5.080;2022-09-28T05:38:35;99717.52;;;8.03;82.17
58967;BME280;44744;51.894;5.080;2022-09-28T05:39:37;99719.16;;;8.02;82.14
58967;BME280;44744;51.894;5.080;2022-09-28T05:40:40;99720.90;;;8.03;82.20
58967;BME280;44744;51.894;5.080;2022-09-28T05:41:41;99719.84;;;8.02;82.27
58967;BME280;44744;51.894;5.080;2022-09-28T05:42:41;99713.90;;;8.02;82.37
58967;BME280;44744;51.894;5.080;2022-09-28T05:43:42;99712.69;;;8.01;82.16
58967;BME280;44744;51.894;5.080;2022-09-28T05:44:42;99709.52;;;8.02;82.35
58967;BME280;44744;51.894;5.080;2022-09-28T05:45:43;99702.17;;;8.01;82.39
58967;BME280;44744;51.894;5.080;2022-09-28T05:46:43;99696.05;;;8.00;82.45
58967;BME280;44744;51.894;5.080;2022-09-28T05:47:43;99696.02;;;8.01;82.57
58967;BME280;44744;51.894;5.080;2022-09-28T05:48:44;99695.58;;;8.02;82.57
58967;BME280;44744;51.894;5.080;2022-09-28T05:49:44;99687.86;;;8.05;82.45
58967;BME280;44744;51.894;5.080;2022-09-28T05:50:49;99686.20;;;8.06;82.53
58967;BME280;44744;51.894;5.080;2022-09-28T05:51:50;99690.11;;;8.08;82.60
58967;BME280;44744;51.894;5.080;2022-09-28T05:53:01;99691.41;;;8.10;82.42
58967;BME280;44744;51.894;5.080;2022-09-28T05:54:01;99695.42;;;8.10;82.68
58967;BME280;44744;51.894;5.080;2022-09-28T05:55:02;99696.42;;;8.11;82.53
58967;BME280;44744;51.894;5.080;2022-09-28T05:56:02;99697.39;;;8.13;82.55
58967;BME280;44744;51.894;5.080;2022-09-28T05:57:04;99695.64;;;8.12;82.55
58967;BME280;44744;51.894;5.080;2022-09-28T05:58:05;99701.23;;;8.13;82.70
58967;BME280;44744;51.894;5.080;2022-09-28T05:59:05;99701.59;;;8.13;82.60
58967;BME280;44744;51.894;5.080;2022-09-28T06:00:09;99701.61;;;8.12;82.58
58967;BME280;44744;51.894;5.080;2022-09-28T06:01:09;99702.02;;;8.12;82.66
58967;BME280;44744;51.894;5.080;2022-09-28T06:02:10;99705.04;;;8.11;82.64
58967;BME280;44744;51.894;5.080;2022-09-28T06:03:12;99702.92;;;8.12;82.73
58967;BME280;44744;51.894;5.080;2022-09-28T06:04:12;99703.96;;;8.12;82.68
58967;BME280;44744;51.894;5.080;2022-09-28T06:05:13;99699.94;;;8.11;82.79
58967;BME280;44744;51.894;5.080;2022-09-28T06:06:13;99700.85;;;8.11;82.76
58967;BME280;44744;51.894;5.080;2022-09-28T06:07:14;99703.51;;;8.11;82.80
58967;BME280;44744;51.894;5.080;2022-09-28T06:08:14;99705.48;;;8.10;82.85
58967;BME280;44744;51.894;5.080;2022-09-28T06:09:14;99706.71;;;8.10;82.77
58967;BME280;44744;51.894;5.080;2022-09-28T06:11:52;99705.08;;;8.08;82.72
58967;BME280;44744;51.894;5.080;2022-09-28T06:12:54;99705.65;;;8.07;82.83
58967;BME280;44744;51.894;5.080;2022-09-28T06:13:54;99704.60;;;8.07;82.88